Sunizona, Arizona
Current Conditions -  °F | °C
As of 10:56 PM on Friday 19 Dec 2014 (Local Time) from KDUG Reporting Station
Clear Clear  
Wind Chill: 23°   Ceiling: Unl
Heat Index: 31°   Visibility: 10mi
Dew Point: 29°   Wind: 9mph
Humidity: 92%   Direction: 10°N
Pressure: 30.18"   Gusts: NA
Location:  31.9924°N, 109.696°W
Report Text: KDUG 200556Z AUTO 01008KT 10SM CLR M01/M02 A3018 RMK AO2 SLP212 T10061017 10111 21017 53009
Loading
Personal Weather Stations






























Interactive Weather Map New forecast layout! Learn more

10-Day Weather Forecast

Advertisements
Track Severe Weather on mobile